createdAt,value
2023-02-11T00:00:21.684Z,-6.73
2023-02-11T00:02:48.352Z,-6.86
2023-02-11T00:05:15.273Z,-6.84
2023-02-11T00:07:41.881Z,-6.74
2023-02-11T00:10:08.952Z,-6.88
2023-02-11T00:12:36.132Z,-6.81
2023-02-11T00:15:03.098Z,-6.88
2023-02-11T00:17:29.680Z,-6.91
2023-02-11T00:19:56.318Z,-6.99
2023-02-11T00:22:23.007Z,-6.93
2023-02-11T00:24:49.610Z,-6.85
2023-02-11T00:27:16.197Z,-6.94
2023-02-11T00:29:42.700Z,-7.00
2023-02-11T00:32:09.724Z,-6.96
2023-02-11T00:34:36.420Z,-6.90
2023-02-11T00:37:03.131Z,-7.00
2023-02-11T00:39:29.724Z,-7.04
2023-02-11T00:41:56.489Z,-7.02
2023-02-11T00:44:23.070Z,-7.13
2023-02-11T00:46:49.703Z,-7.18
2023-02-11T00:49:16.381Z,-7.21
2023-02-11T00:51:43.000Z,-7.17
2023-02-11T00:54:09.559Z,-7.20
2023-02-11T00:56:36.194Z,-7.15
2023-02-11T00:59:02.826Z,-7.14
2023-02-11T01:01:29.603Z,-7.18
2023-02-11T01:03:56.321Z,-7.17
2023-02-11T01:06:23.049Z,-7.17
2023-02-11T01:08:49.666Z,-7.15
2023-02-11T01:11:18.742Z,-7.24
2023-02-11T01:13:45.661Z,-7.29
2023-02-11T01:16:12.416Z,-7.27
2023-02-11T01:18:39.181Z,-7.29
2023-02-11T01:21:05.732Z,-7.32
2023-02-11T01:23:32.423Z,-7.31
2023-02-11T01:25:59.272Z,-7.34
2023-02-11T01:28:26.997Z,-7.38
2023-02-11T01:30:53.771Z,-7.31
2023-02-11T01:33:20.629Z,-7.41
2023-02-11T01:35:47.255Z,-7.42
2023-02-11T01:38:18.861Z,-7.43
2023-02-11T01:40:53.390Z,-7.44
2023-02-11T01:43:20.325Z,-7.50
2023-02-11T01:45:53.060Z,-7.60
2023-02-11T01:48:22.723Z,-7.53
2023-02-11T01:50:51.192Z,-7.43
2023-02-11T01:53:17.922Z,-7.47
2023-02-11T01:55:44.545Z,-7.45
2023-02-11T01:58:11.098Z,-7.44
2023-02-11T02:00:38.243Z,-7.46
2023-02-11T02:03:14.428Z,-7.39
2023-02-11T02:06:00.617Z,-7.37
2023-02-11T02:08:35.059Z,-7.30
2023-02-11T02:11:01.867Z,-7.37
2023-02-11T02:13:30.224Z,-7.53
2023-02-11T02:15:58.745Z,-7.49
2023-02-11T02:18:56.386Z,-7.43
2023-02-11T02:22:00.219Z,-7.40
2023-02-11T02:24:41.330Z,-7.39
2023-02-11T02:27:26.005Z,-7.38
2023-02-11T02:30:20.368Z,-7.41
2023-02-11T02:33:20.484Z,-7.40
2023-02-11T02:36:02.699Z,-7.37
2023-02-11T02:38:38.122Z,-7.45
2023-02-11T02:41:08.491Z,-7.32
2023-02-11T02:43:36.065Z,-7.43
2023-02-11T02:46:14.632Z,-7.45
2023-02-11T02:48:41.324Z,-7.44
2023-02-11T02:51:35.377Z,-7.43
2023-02-11T02:54:26.525Z,-7.47
2023-02-11T02:57:17.504Z,-7.44
2023-02-11T02:59:52.038Z,-7.39
2023-02-11T03:02:40.729Z,-7.47
2023-02-11T03:05:12.130Z,-7.41
2023-02-11T03:07:41.540Z,-7.32
2023-02-11T03:10:11.118Z,-7.39
2023-02-11T03:12:37.678Z,-7.49
2023-02-11T03:15:04.965Z,-7.52
2023-02-11T03:17:31.505Z,-7.39
2023-02-11T03:19:58.168Z,-7.45
2023-02-11T03:22:32.627Z,-7.41
2023-02-11T03:24:59.186Z,-7.33
2023-02-11T03:27:40.725Z,-7.37
2023-02-11T03:30:11.575Z,-7.37
2023-02-11T03:32:43.123Z,-7.32
2023-02-11T03:35:36.754Z,-7.44
2023-02-11T03:38:09.290Z,-7.44
2023-02-11T03:40:36.695Z,-7.43
2023-02-11T03:43:06.763Z,-7.53
2023-02-11T03:45:33.401Z,-7.55
2023-02-11T03:48:02.179Z,-7.51
2023-02-11T03:50:29.918Z,-7.54
2023-02-11T03:52:56.544Z,-7.55
2023-02-11T03:55:23.293Z,-7.52
2023-02-11T03:57:49.890Z,-7.43
2023-02-11T04:00:16.492Z,-7.48
2023-02-11T04:02:43.358Z,-7.38
2023-02-11T04:05:11.602Z,-7.39
2023-02-11T04:07:38.166Z,-7.46
2023-02-11T04:10:05.068Z,-7.30
2023-02-11T04:12:31.664Z,-7.28
2023-02-11T04:14:58.235Z,-7.21
2023-02-11T04:17:24.756Z,-7.21
2023-02-11T04:19:51.313Z,-7.05
2023-02-11T04:22:17.893Z,-7.14
2023-02-11T04:24:44.453Z,-7.15
2023-02-11T04:27:11.070Z,-7.06
2023-02-11T04:29:37.735Z,-7.00
2023-02-11T04:32:04.342Z,-6.94
2023-02-11T04:34:31.078Z,-6.93
2023-02-11T04:36:57.559Z,-6.84
2023-02-11T04:39:24.104Z,-6.91
2023-02-11T04:41:50.644Z,-6.91
2023-02-11T04:44:17.280Z,-6.87
2023-02-11T04:46:43.834Z,-6.87
2023-02-11T04:49:13.120Z,-6.83
2023-02-11T04:51:39.800Z,-6.96
2023-02-11T04:54:06.423Z,-6.76
2023-02-11T04:56:33.101Z,-6.69
2023-02-11T04:58:59.665Z,-6.69
2023-02-11T05:01:26.372Z,-6.65
2023-02-11T05:03:53.102Z,-6.62
2023-02-11T05:06:19.686Z,-6.57
2023-02-11T05:08:46.325Z,-6.52
2023-02-11T05:11:16.035Z,-6.49
2023-02-11T05:13:42.606Z,-6.35
2023-02-11T05:16:09.625Z,-6.39
2023-02-11T05:18:39.811Z,-6.32
2023-02-11T05:21:10.265Z,-6.29
2023-02-11T05:23:36.935Z,-6.21
2023-02-11T05:26:03.748Z,-6.25
2023-02-11T05:28:30.335Z,-6.15
2023-02-11T05:30:59.676Z,-6.19
2023-02-11T05:33:26.324Z,-6.12
2023-02-11T05:35:53.162Z,-6.11
2023-02-11T05:38:19.740Z,-6.00
2023-02-11T05:40:46.270Z,-5.96
2023-02-11T05:43:12.965Z,-5.94
2023-02-11T05:45:39.513Z,-5.91
2023-02-11T05:48:06.384Z,-5.89
2023-02-11T05:50:33.126Z,-5.78
2023-02-11T05:52:59.679Z,-5.75
2023-02-11T05:55:26.537Z,-5.73
2023-02-11T05:57:55.959Z,-6.54
2023-02-11T06:00:22.514Z,-5.86
2023-02-11T06:02:49.131Z,-5.80
2023-02-11T06:05:15.697Z,-5.80
2023-02-11T06:07:42.254Z,-5.87
2023-02-11T06:10:09.024Z,-5.86
2023-02-11T06:12:36.452Z,-5.88
2023-02-11T06:15:03.133Z,-5.83
2023-02-11T06:17:29.834Z,-5.72
2023-02-11T06:19:56.368Z,-5.69
2023-02-11T06:22:22.938Z,-5.67
2023-02-11T06:25:00.713Z,-5.56
2023-02-11T06:27:28.431Z,-5.53
2023-02-11T06:29:55.005Z,-5.51
2023-02-11T06:32:42.272Z,-5.43
2023-02-11T06:35:11.375Z,-5.36
2023-02-11T06:37:38.368Z,-5.25
2023-02-11T06:40:05.222Z,-5.22
2023-02-11T06:42:31.836Z,-5.17
2023-02-11T06:44:58.374Z,-5.14
2023-02-11T06:47:25.002Z,-5.08
2023-02-11T06:49:51.496Z,-5.07
2023-02-11T06:52:18.050Z,-4.99
2023-02-11T06:54:44.621Z,-4.71
2023-02-11T06:57:11.155Z,-4.46
2023-02-11T06:59:37.703Z,-4.31
2023-02-11T07:02:12.598Z,-4.38
2023-02-11T07:04:39.286Z,-4.35
2023-02-11T07:07:06.070Z,-4.30
2023-02-11T07:09:32.544Z,-4.26
2023-02-11T07:11:59.268Z,-4.03
2023-02-11T07:14:25.783Z,-4.06
2023-02-11T07:16:52.304Z,-4.12
2023-02-11T07:19:18.904Z,-4.22
2023-02-11T07:21:45.649Z,-4.12
2023-02-11T07:24:12.886Z,-4.16
2023-02-11T07:26:39.757Z,-4.16
2023-02-11T07:29:06.573Z,-4.06
2023-02-11T07:31:33.340Z,-4.00
2023-02-11T07:34:01.611Z,-3.96
2023-02-11T07:36:28.950Z,-3.96
2023-02-11T07:38:55.750Z,-3.93
2023-02-11T07:41:22.890Z,-3.90
2023-02-11T07:43:49.723Z,-3.82
2023-02-11T07:46:21.532Z,-3.70
2023-02-11T07:48:48.490Z,-3.75
2023-02-11T07:51:25.734Z,-3.63
2023-02-11T07:53:52.593Z,-3.58
2023-02-11T07:56:19.654Z,-3.51
2023-02-11T07:58:46.628Z,-3.47
2023-02-11T08:01:18.233Z,-3.32
2023-02-11T08:03:45.276Z,-3.12
2023-02-11T08:06:13.675Z,-2.95
2023-02-11T08:08:40.481Z,-2.79
2023-02-11T08:11:12.038Z,-2.71
2023-02-11T08:13:38.702Z,-2.68
2023-02-11T08:16:05.604Z,-2.62
2023-02-11T08:18:32.608Z,-2.59
2023-02-11T08:21:08.821Z,-2.56
2023-02-11T08:23:39.216Z,-2.48
2023-02-11T08:26:07.249Z,-2.51
2023-02-11T08:28:37.859Z,-2.54
2023-02-11T08:31:15.133Z,-2.35
2023-02-11T08:33:41.721Z,-2.33
2023-02-11T08:36:09.609Z,-2.35
2023-02-11T08:38:37.860Z,-2.27
2023-02-11T08:41:04.607Z,-2.29
2023-02-11T08:43:31.168Z,-2.29
2023-02-11T08:46:00.162Z,-2.27
2023-02-11T08:48:28.817Z,-2.20
2023-02-11T08:50:56.059Z,-2.04
2023-02-11T08:53:22.752Z,-1.83
2023-02-11T08:55:53.545Z,-1.64
2023-02-11T08:58:20.836Z,-1.39
2023-02-11T09:00:48.015Z,-1.57
2023-02-11T09:03:14.887Z,-1.38
2023-02-11T09:05:45.900Z,-1.10
2023-02-11T09:08:12.929Z,-0.87
2023-02-11T09:10:39.515Z,-0.67
2023-02-11T09:13:06.516Z,-0.56
2023-02-11T09:15:33.135Z,0.22
2023-02-11T09:17:59.655Z,2.10
2023-02-11T09:20:26.633Z,5.66
2023-02-11T09:22:54.098Z,7.52
2023-02-11T09:25:20.872Z,8.12
2023-02-11T09:27:47.334Z,9.64
2023-02-11T09:30:13.879Z,7.91
2023-02-11T09:32:40.371Z,9.99
2023-02-11T09:35:07.517Z,10.82
2023-02-11T09:37:36.317Z,10.95
2023-02-11T09:40:03.993Z,10.00
2023-02-11T09:42:39.400Z,7.02
2023-02-11T09:45:22.575Z,5.65
2023-02-11T09:47:55.055Z,5.13
2023-02-11T09:50:34.290Z,4.47
2023-02-11T09:53:30.456Z,4.01
2023-02-11T09:56:01.779Z,3.29
2023-02-11T09:58:39.606Z,2.93
2023-02-11T10:01:27.488Z,2.66
2023-02-11T10:04:06.142Z,1.98
2023-02-11T10:06:35.535Z,2.50
2023-02-11T10:09:11.652Z,2.48
2023-02-11T10:11:49.808Z,2.33
2023-02-11T10:14:37.919Z,1.86
2023-02-11T10:17:26.258Z,1.61
2023-02-11T10:20:08.642Z,1.67
2023-02-11T10:22:41.603Z,1.77
2023-02-11T10:25:38.748Z,1.28
2023-02-11T10:28:19.292Z,1.31
2023-02-11T10:31:00.810Z,1.56
2023-02-11T10:33:44.899Z,1.15
2023-02-11T10:36:12.023Z,1.07
2023-02-11T10:38:38.665Z,1.29
2023-02-11T10:41:05.545Z,1.41
2023-02-11T10:43:32.243Z,1.32
2023-02-11T10:45:59.158Z,1.48
2023-02-11T10:48:45.051Z,1.13
2023-02-11T10:51:23.727Z,1.11
2023-02-11T10:54:12.542Z,1.14
2023-02-11T10:56:44.579Z,1.50
2023-02-11T10:59:30.980Z,1.64
2023-02-11T11:01:58.381Z,1.68
2023-02-11T11:04:27.539Z,1.51
2023-02-11T11:06:54.056Z,1.29
2023-02-11T11:09:30.412Z,1.48
2023-02-11T11:11:57.030Z,1.59
2023-02-11T11:14:23.781Z,1.66
2023-02-11T11:16:53.338Z,1.56
2023-02-11T11:19:24.136Z,1.71
2023-02-11T11:21:54.783Z,1.73
2023-02-11T11:24:24.977Z,1.48
2023-02-11T11:26:54.436Z,1.33
2023-02-11T11:29:24.830Z,1.44
2023-02-11T11:31:53.249Z,1.60
2023-02-11T11:34:41.937Z,1.90
2023-02-11T11:37:23.751Z,1.80
2023-02-11T11:39:57.433Z,1.72
2023-02-11T11:42:28.901Z,1.94
2023-02-11T11:45:17.637Z,1.93
2023-02-11T11:48:16.247Z,1.97
2023-02-11T11:50:49.170Z,1.99
2023-02-11T11:53:21.068Z,1.96
2023-02-11T11:56:01.385Z,2.01
2023-02-11T11:58:28.365Z,2.00
2023-02-11T12:01:07.074Z,2.28
2023-02-11T12:03:57.935Z,2.50
2023-02-11T12:06:32.884Z,2.42
2023-02-11T12:09:41.495Z,2.50
2023-02-11T12:12:26.223Z,2.50
2023-02-11T12:15:25.037Z,2.40
2023-02-11T12:18:16.449Z,2.49
2023-02-11T12:21:11.752Z,2.59
2023-02-11T12:23:54.134Z,2.85
2023-02-11T12:26:22.889Z,3.16
2023-02-11T12:29:07.733Z,3.18
2023-02-11T12:31:59.009Z,3.21
2023-02-11T12:34:55.045Z,3.17
2023-02-11T12:37:30.981Z,3.03
2023-02-11T12:40:09.170Z,2.84
2023-02-11T12:42:47.006Z,3.04
2023-02-11T12:45:28.503Z,3.24
2023-02-11T12:48:26.761Z,3.12
2023-02-11T12:51:12.007Z,3.03
2023-02-11T12:54:12.472Z,3.03
2023-02-11T12:56:48.031Z,3.18
2023-02-11T12:59:33.676Z,3.15
2023-02-11T13:02:00.275Z,3.22
2023-02-11T13:04:48.226Z,3.47
2023-02-11T13:07:21.458Z,3.54
2023-02-11T13:10:02.729Z,3.81
2023-02-11T13:12:29.684Z,3.94
2023-02-11T13:14:56.862Z,3.96
2023-02-11T13:17:30.805Z,3.76
2023-02-11T13:20:03.886Z,3.69
2023-02-11T13:22:40.015Z,3.43
2023-02-11T13:25:33.268Z,3.27
2023-02-11T13:28:32.131Z,3.19
2023-02-11T13:31:08.032Z,3.03
2023-02-11T13:33:40.757Z,3.01
2023-02-11T13:36:17.221Z,2.95
2023-02-11T13:39:12.960Z,2.93
2023-02-11T13:41:43.039Z,2.86
2023-02-11T13:44:19.234Z,2.72
2023-02-11T13:46:54.619Z,2.84
2023-02-11T13:49:42.477Z,2.76
2023-02-11T13:52:30.852Z,2.67
2023-02-11T13:55:20.503Z,2.53
2023-02-11T13:58:08.272Z,2.56
2023-02-11T14:00:34.905Z,2.47
2023-02-11T14:03:10.307Z,2.52
2023-02-11T14:05:36.933Z,2.51
2023-02-11T14:08:09.402Z,2.52
2023-02-11T14:10:41.985Z,2.55
2023-02-11T14:13:35.454Z,2.59
2023-02-11T14:16:09.177Z,2.55
2023-02-11T14:18:44.553Z,2.52
2023-02-11T14:21:26.250Z,2.51
2023-02-11T14:23:53.351Z,2.52
2023-02-11T14:26:20.153Z,2.63
2023-02-11T14:28:52.585Z,2.75
2023-02-11T14:31:22.033Z,2.76
2023-02-11T14:34:24.263Z,2.85
2023-02-11T14:37:38.850Z,2.86
2023-02-11T14:40:39.212Z,2.84
2023-02-11T14:43:29.614Z,2.77
2023-02-11T14:45:56.477Z,2.92
2023-02-11T14:48:30.466Z,2.96
2023-02-11T14:51:06.826Z,2.85
2023-02-11T14:53:33.412Z,2.89
2023-02-11T14:55:59.952Z,2.82
2023-02-11T14:58:30.624Z,2.88
2023-02-11T15:01:22.417Z,2.87
2023-02-11T15:03:49.227Z,2.92
2023-02-11T15:06:34.457Z,2.90
2023-02-11T15:09:05.280Z,2.95
2023-02-11T15:11:34.530Z,2.94
2023-02-11T15:14:25.835Z,3.00
2023-02-11T15:16:53.363Z,2.84
2023-02-11T15:19:32.403Z,2.78
2023-02-11T15:22:00.712Z,2.83
2023-02-11T15:24:28.385Z,2.84
2023-02-11T15:26:59.462Z,2.67
2023-02-11T15:29:27.365Z,2.70
2023-02-11T15:32:16.223Z,2.68
2023-02-11T15:34:46.045Z,2.69
2023-02-11T15:37:23.420Z,2.68
2023-02-11T15:39:49.948Z,2.68
2023-02-11T15:42:17.315Z,2.65
2023-02-11T15:44:43.850Z,2.64
2023-02-11T15:47:11.573Z,2.62
2023-02-11T15:49:38.146Z,2.61
2023-02-11T15:52:04.785Z,2.47
2023-02-11T15:54:31.581Z,2.45
2023-02-11T15:57:05.132Z,2.52
2023-02-11T15:59:36.940Z,2.46
2023-02-11T16:02:33.012Z,2.43
2023-02-11T16:05:08.081Z,2.40
2023-02-11T16:07:47.513Z,2.39
2023-02-11T16:10:31.331Z,2.35
2023-02-11T16:13:06.770Z,2.39
2023-02-11T16:15:33.114Z,2.31
2023-02-11T16:18:02.662Z,2.29
2023-02-11T16:20:29.196Z,2.24
2023-02-11T16:22:55.699Z,2.24
2023-02-11T16:25:22.275Z,2.19
2023-02-11T16:27:49.465Z,2.19
2023-02-11T16:30:28.871Z,2.11
2023-02-11T16:32:55.510Z,2.11
2023-02-11T16:35:22.079Z,2.13
2023-02-11T16:37:48.647Z,1.99
2023-02-11T16:40:15.438Z,2.05
2023-02-11T16:42:41.955Z,2.03
2023-02-11T16:45:09.081Z,2.06
2023-02-11T16:47:35.629Z,2.01
2023-02-11T16:50:02.774Z,1.98
2023-02-11T16:52:29.286Z,2.01
2023-02-11T16:54:55.773Z,2.00
2023-02-11T16:57:28.099Z,1.93
2023-02-11T16:59:56.144Z,1.90
2023-02-11T17:02:26.746Z,1.82
2023-02-11T17:04:54.015Z,1.82
2023-02-11T17:07:20.665Z,1.80
2023-02-11T17:09:47.171Z,1.84
2023-02-11T17:12:13.854Z,1.79
2023-02-11T17:14:40.351Z,1.72
2023-02-11T17:17:06.886Z,1.67
2023-02-11T17:19:33.534Z,1.67
2023-02-11T17:22:00.175Z,1.68
2023-02-11T17:24:26.676Z,1.67
2023-02-11T17:26:53.210Z,1.65
2023-02-11T17:29:21.733Z,1.65
2023-02-11T17:31:48.486Z,1.63
2023-02-11T17:34:15.082Z,1.67
2023-02-11T17:36:41.631Z,1.71
2023-02-11T17:39:08.456Z,1.69
2023-02-11T17:41:36.188Z,1.60
2023-02-11T17:44:02.741Z,1.69
2023-02-11T17:46:29.298Z,1.68
2023-02-11T17:48:57.363Z,1.69
2023-02-11T17:51:25.630Z,1.63
2023-02-11T17:53:52.661Z,1.53
2023-02-11T17:56:19.301Z,1.41
2023-02-11T17:58:45.928Z,1.27
2023-02-11T18:01:12.542Z,1.11
2023-02-11T18:03:39.095Z,1.00
2023-02-11T18:06:06.751Z,1.03
2023-02-11T18:08:34.063Z,1.02
2023-02-11T18:11:00.551Z,0.99
2023-02-11T18:13:27.684Z,0.85
2023-02-11T18:15:54.320Z,0.99
2023-02-11T18:18:20.917Z,0.82
2023-02-11T18:20:56.709Z,0.77
2023-02-11T18:23:23.482Z,0.73
2023-02-11T18:25:50.374Z,0.74
2023-02-11T18:28:17.120Z,0.84
2023-02-11T18:30:43.704Z,0.82
2023-02-11T18:33:10.308Z,0.82
2023-02-11T18:35:43.160Z,0.76
2023-02-11T18:38:09.771Z,0.63
2023-02-11T18:40:39.474Z,0.64
2023-02-11T18:43:06.178Z,0.73
2023-02-11T18:45:32.735Z,0.70
2023-02-11T18:47:59.403Z,0.43
2023-02-11T18:50:25.887Z,0.45
2023-02-11T18:52:52.461Z,0.40
2023-02-11T18:55:20.402Z,0.38
2023-02-11T18:57:48.699Z,0.27
2023-02-11T19:00:15.852Z,0.33
2023-02-11T19:02:42.652Z,0.32
2023-02-11T19:05:09.322Z,0.35
2023-02-11T19:07:35.888Z,0.22
2023-02-11T19:10:02.462Z,0.21
2023-02-11T19:12:29.010Z,0.29
2023-02-11T19:14:55.528Z,0.43
2023-02-11T19:17:22.071Z,0.43
2023-02-11T19:19:48.665Z,0.50
2023-02-11T19:22:15.163Z,0.51
2023-02-11T19:24:41.765Z,0.38
2023-02-11T19:27:08.466Z,0.48
2023-02-11T19:29:35.200Z,0.50
2023-02-11T19:32:03.018Z,0.65
2023-02-11T19:34:29.593Z,0.78
2023-02-11T19:36:56.102Z,0.97
2023-02-11T19:39:22.621Z,1.10
2023-02-11T19:41:49.195Z,1.14
2023-02-11T19:44:15.871Z,0.99
2023-02-11T19:46:42.483Z,0.80
2023-02-11T19:49:09.002Z,0.74
2023-02-11T19:51:35.698Z,0.58
2023-02-11T19:54:02.263Z,0.59
2023-02-11T19:56:28.867Z,0.62
2023-02-11T19:58:55.420Z,0.45
2023-02-11T20:01:22.469Z,0.39
2023-02-11T20:03:49.517Z,0.35
2023-02-11T20:06:17.091Z,0.32
2023-02-11T20:08:43.895Z,0.06
2023-02-11T20:11:11.309Z,0.16
2023-02-11T20:13:38.065Z,0.21
2023-02-11T20:16:06.354Z,0.28
2023-02-11T20:18:32.888Z,0.29
2023-02-11T20:20:59.495Z,0.31
2023-02-11T20:23:26.121Z,0.41
2023-02-11T20:25:52.987Z,0.38
2023-02-11T20:28:19.776Z,0.49
2023-02-11T20:30:54.657Z,0.53
2023-02-11T20:33:21.242Z,0.65
2023-02-11T20:35:54.742Z,0.75
2023-02-11T20:38:21.315Z,0.94
2023-02-11T20:40:47.887Z,0.89
2023-02-11T20:43:14.368Z,0.90
2023-02-11T20:45:41.080Z,0.97
2023-02-11T20:48:07.677Z,0.97
2023-02-11T20:50:34.514Z,1.04
2023-02-11T20:53:01.065Z,1.09
2023-02-11T20:55:27.574Z,1.10
2023-02-11T20:57:54.284Z,1.08
2023-02-11T21:00:20.964Z,1.15
2023-02-11T21:02:52.037Z,1.07
2023-02-11T21:05:18.715Z,1.12
2023-02-11T21:07:45.272Z,1.14
2023-02-11T21:10:12.006Z,1.12
2023-02-11T21:12:38.622Z,1.12
2023-02-11T21:15:05.388Z,1.17
2023-02-11T21:17:32.169Z,1.18
2023-02-11T21:19:58.703Z,1.26
2023-02-11T21:22:25.299Z,1.31
2023-02-11T21:24:51.923Z,1.25
2023-02-11T21:27:18.490Z,1.37
2023-02-11T21:29:53.692Z,1.35
2023-02-11T21:32:21.278Z,1.31
2023-02-11T21:35:00.611Z,1.30
2023-02-11T21:37:49.629Z,1.22
2023-02-11T21:40:23.433Z,1.28
2023-02-11T21:43:04.841Z,1.28
2023-02-11T21:45:36.073Z,1.34
2023-02-11T21:48:06.857Z,1.30
2023-02-11T21:50:43.393Z,1.29
2023-02-11T21:53:13.439Z,1.26
2023-02-11T21:55:40.886Z,1.25
2023-02-11T21:58:08.269Z,1.19
2023-02-11T22:00:41.162Z,1.21
2023-02-11T22:03:08.351Z,1.25
2023-02-11T22:05:34.951Z,1.23
2023-02-11T22:08:01.722Z,1.19
2023-02-11T22:10:28.481Z,1.33
2023-02-11T22:12:55.010Z,1.22
2023-02-11T22:15:21.658Z,1.33
2023-02-11T22:17:48.319Z,1.27
2023-02-11T22:20:14.853Z,1.35
2023-02-11T22:22:41.342Z,1.29
2023-02-11T22:25:08.082Z,1.36
2023-02-11T22:27:34.673Z,1.24
2023-02-11T22:30:01.328Z,1.24
2023-02-11T22:32:27.887Z,1.27
2023-02-11T22:34:54.400Z,1.24
2023-02-11T22:37:20.909Z,1.29
2023-02-11T22:39:47.575Z,1.31
2023-02-11T22:42:14.148Z,1.32
2023-02-11T22:44:40.690Z,1.30
2023-02-11T22:47:07.273Z,1.30
2023-02-11T22:49:33.780Z,1.33
2023-02-11T22:52:00.347Z,1.32
2023-02-11T22:54:26.966Z,1.32
2023-02-11T22:56:53.492Z,1.37
2023-02-11T22:59:20.038Z,1.26
2023-02-11T23:01:46.624Z,1.24
2023-02-11T23:04:13.954Z,1.29
2023-02-11T23:06:40.500Z,1.29
2023-02-11T23:09:07.971Z,1.28
2023-02-11T23:11:34.545Z,1.18
2023-02-11T23:14:01.354Z,1.30
2023-02-11T23:16:29.781Z,1.28
2023-02-11T23:19:02.777Z,1.18
2023-02-11T23:21:31.285Z,1.25
2023-02-11T23:24:00.980Z,1.26
2023-02-11T23:26:27.768Z,1.26
2023-02-11T23:28:54.338Z,1.34
2023-02-11T23:31:29.056Z,1.32
2023-02-11T23:33:55.691Z,1.26
2023-02-11T23:36:22.612Z,1.27
2023-02-11T23:38:49.238Z,1.33
2023-02-11T23:41:15.876Z,1.30
2023-02-11T23:43:42.543Z,1.30
2023-02-11T23:46:09.703Z,1.28
2023-02-11T23:48:36.436Z,1.29
2023-02-11T23:51:03.409Z,1.24
2023-02-11T23:53:29.955Z,1.16
2023-02-11T23:55:56.798Z,1.19
2023-02-11T23:58:23.494Z,1.18
